createdAt,value
2022-08-07T00:00:24.772Z,15.16
2022-08-07T00:02:51.175Z,15.23
2022-08-07T00:05:20.503Z,15.10
2022-08-07T00:07:46.987Z,15.10
2022-08-07T00:10:26.184Z,14.91
2022-08-07T00:13:00.209Z,14.91
2022-08-07T00:15:36.023Z,15.00
2022-08-07T00:18:05.428Z,15.04
2022-08-07T00:20:35.355Z,15.02
2022-08-07T00:23:02.499Z,14.92
2022-08-07T00:25:28.943Z,15.09
2022-08-07T00:28:07.598Z,15.01
2022-08-07T00:30:34.006Z,14.96
2022-08-07T00:33:02.238Z,14.71
2022-08-07T00:35:30.006Z,14.68
2022-08-07T00:37:57.902Z,14.80
2022-08-07T00:40:36.674Z,14.74
2022-08-07T00:43:10.004Z,14.84
2022-08-07T00:45:38.856Z,14.79
2022-08-07T00:48:10.277Z,14.74
2022-08-07T00:50:50.279Z,14.77
2022-08-07T00:53:20.075Z,14.72
2022-08-07T00:56:00.463Z,14.75
2022-08-07T00:58:28.477Z,14.61
2022-08-07T01:00:54.902Z,14.56
2022-08-07T01:03:25.443Z,14.58
2022-08-07T01:06:08.406Z,14.49
2022-08-07T01:08:34.921Z,14.55
2022-08-07T01:12:04.821Z,14.48
2022-08-07T01:13:55.532Z,14.53
2022-08-07T01:16:30.379Z,14.37
2022-08-07T01:18:57.972Z,14.48
2022-08-07T01:21:26.225Z,14.32
2022-08-07T01:23:55.247Z,14.49
2022-08-07T01:26:22.673Z,14.28
2022-08-07T01:28:53.859Z,14.29
2022-08-07T01:31:21.339Z,14.46
2022-08-07T01:33:55.472Z,14.47
2022-08-07T01:36:33.808Z,14.43
2022-08-07T01:39:09.882Z,14.51
2022-08-07T01:41:39.001Z,14.25
2022-08-07T01:44:07.464Z,14.14
2022-08-07T01:46:34.460Z,14.25
2022-08-07T01:49:02.224Z,14.38
2022-08-07T01:52:03.815Z,14.39
2022-08-07T01:54:33.387Z,14.23
2022-08-07T01:57:20.482Z,14.21
2022-08-07T02:00:12.849Z,14.12
2022-08-07T02:03:18.939Z,14.10
2022-08-07T02:06:01.004Z,14.19
2022-08-07T02:08:29.763Z,14.25
2022-08-07T02:10:59.283Z,14.39
2022-08-07T02:13:58.193Z,14.47
2022-08-07T02:16:14.610Z,14.11
2022-08-07T02:18:46.823Z,14.02
2022-08-07T02:21:16.072Z,13.85
2022-08-07T02:23:43.764Z,13.76
2022-08-07T02:26:32.463Z,13.86
2022-08-07T02:28:58.397Z,13.74
2022-08-07T02:31:28.418Z,13.85
2022-08-07T02:34:03.446Z,13.89
2022-08-07T02:36:32.735Z,13.87
2022-08-07T02:39:01.098Z,13.75
2022-08-07T02:41:33.446Z,13.94
2022-08-07T02:44:05.033Z,13.94
2022-08-07T02:46:34.072Z,13.86
2022-08-07T02:49:04.525Z,13.96
2022-08-07T02:51:42.390Z,13.79
2022-08-07T02:54:17.962Z,13.83
2022-08-07T02:56:46.581Z,13.81
2022-08-07T02:59:16.329Z,13.89
2022-08-07T03:01:42.991Z,13.78
2022-08-07T03:04:14.491Z,13.80
2022-08-07T03:06:46.144Z,13.64
2022-08-07T03:09:41.843Z,13.50
2022-08-07T03:12:05.357Z,13.61
2022-08-07T03:14:36.088Z,13.78
2022-08-07T03:17:04.548Z,13.78
2022-08-07T03:19:36.950Z,13.72
2022-08-07T03:22:05.503Z,13.73
2022-08-07T03:24:32.000Z,13.59
2022-08-07T03:27:01.280Z,13.35
2022-08-07T03:29:37.765Z,13.48
2022-08-07T03:32:08.301Z,13.71
2022-08-07T03:34:39.233Z,13.78
2022-08-07T03:37:11.916Z,13.84
2022-08-07T03:39:46.249Z,13.54
2022-08-07T03:42:26.112Z,13.39
2022-08-07T03:44:57.808Z,13.47
2022-08-07T03:47:25.207Z,13.62
2022-08-07T03:49:55.968Z,13.74
2022-08-07T03:52:27.028Z,13.76
2022-08-07T03:54:57.317Z,13.79
2022-08-07T03:59:07.202Z,13.73
2022-08-07T04:00:21.097Z,13.42
2022-08-07T04:02:56.702Z,13.23
2022-08-07T04:05:24.007Z,13.31
2022-08-07T04:07:56.006Z,13.21
2022-08-07T04:10:22.565Z,13.22
2022-08-07T04:12:51.134Z,13.21
2022-08-07T04:15:18.239Z,13.17
2022-08-07T04:18:59.891Z,13.30
2022-08-07T04:20:31.881Z,13.35
2022-08-07T04:23:02.228Z,13.53
2022-08-07T04:25:36.026Z,13.46
2022-08-07T04:28:08.105Z,13.58
2022-08-07T04:30:39.569Z,13.78
2022-08-07T04:33:14.066Z,13.95
2022-08-07T04:35:44.606Z,13.75
2022-08-07T04:38:17.079Z,13.61
2022-08-07T04:40:52.816Z,13.62
2022-08-07T04:44:11.862Z,13.47
2022-08-07T04:46:34.893Z,13.49
2022-08-07T04:49:24.239Z,13.39
2022-08-07T04:52:14.769Z,13.41
2022-08-07T04:54:52.727Z,13.63
2022-08-07T04:58:13.074Z,13.74
2022-08-07T05:00:40.957Z,13.67
2022-08-07T05:03:17.265Z,13.94
2022-08-07T05:06:00.463Z,13.99
2022-08-07T05:08:59.870Z,13.78
2022-08-07T05:11:28.020Z,13.73
2022-08-07T05:14:52.508Z,13.92
2022-08-07T05:17:50.320Z,14.20
2022-08-07T05:20:10.038Z,14.29
2022-08-07T05:22:38.265Z,14.32
2022-08-07T05:25:08.745Z,14.39
2022-08-07T05:28:02.514Z,14.44
2022-08-07T05:30:30.146Z,14.59
2022-08-07T05:32:59.754Z,14.69
2022-08-07T05:35:33.382Z,14.50
2022-08-07T05:38:09.826Z,14.87
2022-08-07T05:40:37.234Z,15.08
2022-08-07T05:43:17.768Z,15.17
2022-08-07T05:45:47.880Z,15.22
2022-08-07T05:48:15.271Z,15.30
2022-08-07T05:50:43.341Z,15.33
2022-08-07T05:54:12.423Z,15.53
2022-08-07T05:56:03.815Z,15.59
2022-08-07T05:58:36.778Z,15.79
2022-08-07T06:01:05.976Z,15.92
2022-08-07T06:03:56.528Z,16.16
2022-08-07T06:06:23.920Z,16.08
2022-08-07T06:08:57.092Z,16.17
2022-08-07T06:11:25.115Z,16.29
2022-08-07T06:14:12.077Z,16.35
2022-08-07T06:16:40.012Z,16.58
2022-08-07T06:19:07.076Z,16.59
2022-08-07T06:22:14.570Z,16.57
2022-08-07T06:24:45.437Z,16.78
2022-08-07T06:27:09.075Z,16.81
2022-08-07T06:29:38.907Z,16.99
2022-08-07T06:32:05.727Z,17.06
2022-08-07T06:34:32.171Z,17.17
2022-08-07T06:36:59.703Z,17.17
2022-08-07T06:40:18.023Z,17.37
2022-08-07T06:42:19.084Z,17.38
2022-08-07T06:44:50.980Z,17.49
2022-08-07T06:47:18.504Z,17.46
2022-08-07T06:49:51.110Z,17.59
2022-08-07T06:52:31.778Z,17.74
2022-08-07T06:55:33.578Z,17.81
2022-08-07T06:57:56.843Z,17.97
2022-08-07T07:00:24.158Z,17.96
2022-08-07T07:02:54.249Z,17.86
2022-08-07T07:06:05.436Z,18.00
2022-08-07T07:08:18.911Z,18.20
2022-08-07T07:10:56.780Z,18.23
2022-08-07T07:13:43.636Z,18.22
2022-08-07T07:16:27.476Z,18.38
2022-08-07T07:18:59.889Z,18.28
2022-08-07T07:21:40.237Z,18.28
2022-08-07T07:24:20.319Z,18.46
2022-08-07T07:26:52.246Z,18.72
2022-08-07T07:29:39.626Z,18.75
2022-08-07T07:32:10.386Z,18.70
2022-08-07T07:34:39.644Z,18.69
2022-08-07T07:37:21.939Z,19.09
2022-08-07T07:39:56.230Z,19.31
2022-08-07T07:42:32.439Z,19.42
2022-08-07T07:45:02.007Z,19.22
2022-08-07T07:47:29.214Z,19.31
2022-08-07T07:50:33.336Z,19.32
2022-08-07T07:52:47.088Z,19.70
2022-08-07T07:55:14.494Z,19.75
2022-08-07T07:57:51.502Z,19.94
2022-08-07T08:00:29.053Z,19.56
2022-08-07T08:03:04.656Z,20.05
2022-08-07T08:05:50.455Z,20.27
2022-08-07T08:08:34.791Z,20.39
2022-08-07T08:11:09.234Z,20.30
2022-08-07T08:13:54.754Z,20.20
2022-08-07T08:16:25.303Z,20.11
2022-08-07T08:18:54.662Z,20.35
2022-08-07T08:21:55.673Z,20.52
2022-08-07T08:24:57.308Z,20.04
2022-08-07T08:27:37.253Z,20.35
2022-08-07T08:30:07.048Z,20.35
2022-08-07T08:32:39.287Z,20.50
2022-08-07T08:35:08.795Z,20.56
2022-08-07T08:38:00.630Z,20.45
2022-08-07T08:41:02.722Z,20.65
2022-08-07T08:43:55.894Z,20.94
2022-08-07T08:46:39.009Z,20.88
2022-08-07T08:49:13.215Z,21.45
2022-08-07T08:52:14.480Z,21.32
2022-08-07T08:55:21.149Z,21.83
2022-08-07T08:58:07.170Z,22.02
2022-08-07T09:00:51.847Z,21.77
2022-08-07T09:03:48.115Z,22.00
2022-08-07T09:06:25.547Z,21.98
2022-08-07T09:09:00.122Z,22.29
2022-08-07T09:11:50.862Z,22.38
2022-08-07T09:14:34.612Z,22.44
2022-08-07T09:18:04.230Z,22.51
2022-08-07T09:20:35.341Z,22.65
2022-08-07T09:24:31.770Z,22.77
2022-08-07T09:26:07.236Z,22.87
2022-08-07T09:30:06.965Z,22.99
2022-08-07T09:31:56.073Z,23.27
2022-08-07T09:34:38.136Z,23.09
2022-08-07T09:37:16.091Z,23.75
2022-08-07T09:39:54.900Z,24.55
2022-08-07T09:42:46.976Z,24.33
2022-08-07T09:47:26.194Z,24.14
2022-08-07T09:48:56.080Z,24.24
2022-08-07T09:52:33.517Z,24.22
2022-08-07T09:55:37.007Z,24.79
2022-08-07T09:58:35.859Z,25.40
2022-08-07T10:01:51.740Z,24.66
2022-08-07T10:04:47.698Z,25.51
2022-08-07T10:07:52.205Z,26.11
2022-08-07T10:11:16.994Z,26.55
2022-08-07T10:13:55.361Z,26.44
2022-08-07T10:16:24.664Z,25.91
2022-08-07T10:19:01.216Z,25.96
2022-08-07T10:22:12.313Z,25.63
2022-08-07T10:24:49.635Z,26.34
2022-08-07T10:27:47.029Z,26.35
2022-08-07T10:30:18.526Z,25.26
2022-08-07T10:33:03.913Z,25.07
2022-08-07T10:35:55.097Z,25.76
2022-08-07T10:38:42.329Z,24.87
2022-08-07T10:41:54.666Z,25.34
2022-08-07T10:44:38.398Z,26.08
2022-08-07T10:47:26.795Z,26.37
2022-08-07T10:50:49.801Z,26.74
2022-08-07T10:53:28.065Z,26.84
2022-08-07T10:56:30.913Z,26.49
2022-08-07T10:59:21.412Z,26.29
2022-08-07T11:02:11.869Z,25.81
2022-08-07T11:04:57.800Z,25.01
2022-08-07T11:07:58.605Z,25.06
2022-08-07T11:10:56.594Z,24.80
2022-08-07T11:14:42.344Z,24.75
2022-08-07T11:16:51.314Z,24.18
2022-08-07T11:19:29.927Z,24.26
2022-08-07T11:22:18.937Z,23.94
2022-08-07T11:25:06.821Z,24.32
2022-08-07T11:28:02.680Z,24.28
2022-08-07T11:30:43.652Z,24.35
2022-08-07T11:33:48.708Z,24.25
2022-08-07T11:36:33.742Z,23.44
2022-08-07T11:39:10.032Z,23.76
2022-08-07T11:42:01.356Z,23.92
2022-08-07T11:44:58.175Z,23.80
2022-08-07T11:47:59.114Z,23.92
2022-08-07T11:50:33.160Z,24.08
2022-08-07T11:53:27.874Z,23.83
2022-08-07T11:56:28.066Z,23.74
2022-08-07T12:00:08.179Z,24.05
2022-08-07T12:02:37.617Z,24.11
2022-08-07T12:05:28.322Z,24.17
2022-08-07T12:08:25.953Z,24.09
2022-08-07T12:11:21.876Z,23.81
2022-08-07T12:13:54.668Z,24.32
2022-08-07T12:16:30.291Z,24.36
2022-08-07T12:19:21.343Z,24.09
2022-08-07T12:22:38.466Z,24.44
2022-08-07T12:25:08.111Z,24.47
2022-08-07T12:28:09.478Z,24.53
2022-08-07T12:30:36.387Z,24.77
2022-08-07T12:33:18.984Z,24.37
2022-08-07T12:35:58.145Z,24.46
2022-08-07T12:38:36.881Z,24.67
2022-08-07T12:41:09.862Z,24.70
2022-08-07T12:44:03.674Z,24.44
2022-08-07T12:47:01.344Z,24.64
2022-08-07T12:49:48.855Z,24.81
2022-08-07T12:52:33.935Z,24.93
2022-08-07T12:55:21.649Z,25.01
2022-08-07T12:58:06.974Z,25.05
2022-08-07T13:00:50.345Z,25.10
2022-08-07T13:04:02.623Z,25.51
2022-08-07T13:07:00.880Z,26.03
2022-08-07T13:10:18.901Z,26.61
2022-08-07T13:13:13.105Z,27.01
2022-08-07T13:16:05.454Z,27.36
2022-08-07T13:18:57.274Z,27.47
2022-08-07T13:21:37.338Z,28.45
2022-08-07T13:24:29.181Z,27.92
2022-08-07T13:27:05.419Z,28.87
2022-08-07T13:30:05.653Z,29.23
2022-08-07T13:32:41.218Z,30.27
2022-08-07T13:35:12.481Z,30.65
2022-08-07T13:38:00.812Z,30.03
2022-08-07T13:40:42.178Z,31.23
2022-08-07T13:43:15.314Z,30.67
2022-08-07T13:46:12.526Z,30.65
2022-08-07T13:48:34.514Z,30.99
2022-08-07T13:51:27.675Z,31.37
2022-08-07T13:54:02.058Z,31.19
2022-08-07T13:56:36.313Z,31.68
2022-08-07T13:59:17.605Z,32.13
2022-08-07T14:02:04.691Z,31.34
2022-08-07T14:04:36.338Z,31.84
2022-08-07T14:07:09.293Z,31.71
2022-08-07T14:10:01.402Z,32.32
2022-08-07T14:12:41.766Z,31.68
2022-08-07T14:15:18.775Z,31.65
2022-08-07T14:18:24.530Z,32.16
2022-08-07T14:20:48.949Z,31.90
2022-08-07T14:23:31.559Z,31.65
2022-08-07T14:26:30.470Z,31.96
2022-08-07T14:29:10.584Z,31.61
2022-08-07T14:31:57.684Z,31.46
2022-08-07T14:34:29.749Z,30.99
2022-08-07T14:37:02.031Z,31.03
2022-08-07T14:40:18.193Z,31.99
2022-08-07T14:42:25.198Z,32.33
2022-08-07T14:44:53.931Z,32.63
2022-08-07T14:47:28.340Z,32.96
2022-08-07T14:49:59.464Z,33.33
2022-08-07T14:52:28.968Z,32.73
2022-08-07T14:54:58.509Z,32.54
2022-08-07T14:57:54.404Z,33.84
2022-08-07T15:00:13.042Z,34.49
2022-08-07T15:03:18.917Z,34.03
2022-08-07T15:14:16.897Z,32.21
2022-08-07T15:20:30.878Z,31.53
2022-08-07T15:25:36.638Z,30.86
2022-08-07T15:28:36.417Z,30.49
2022-08-07T15:31:04.588Z,29.47
2022-08-07T15:37:02.803Z,28.27
2022-08-07T15:39:18.519Z,28.84
2022-08-07T15:42:45.154Z,29.33
2022-08-07T15:44:52.143Z,29.71
2022-08-07T15:47:19.678Z,29.62
2022-08-07T15:50:05.326Z,29.35
2022-08-07T15:52:34.738Z,29.97
2022-08-07T15:55:08.963Z,30.32
2022-08-07T15:57:48.246Z,29.78
2022-08-07T16:00:32.063Z,30.01
2022-08-07T16:03:03.593Z,30.03
2022-08-07T16:05:33.409Z,30.00
2022-08-07T16:08:30.697Z,30.05
2022-08-07T16:11:17.368Z,30.09
2022-08-07T16:14:11.998Z,30.10
2022-08-07T16:17:00.239Z,29.32
2022-08-07T16:20:04.656Z,29.31
2022-08-07T16:22:54.849Z,28.84
2022-08-07T16:26:00.549Z,29.38
2022-08-07T16:30:07.536Z,30.04
2022-08-07T16:31:51.238Z,29.89
2022-08-07T16:34:48.094Z,29.31
2022-08-07T16:38:02.787Z,29.92
2022-08-07T16:40:37.488Z,29.81
2022-08-07T16:44:02.271Z,29.99
2022-08-07T16:47:06.815Z,29.21
2022-08-07T16:50:28.442Z,29.46
2022-08-07T16:53:48.347Z,29.76
2022-08-07T16:55:53.469Z,29.69
2022-08-07T16:58:23.410Z,29.37
2022-08-07T17:01:27.189Z,28.97
2022-08-07T17:04:33.377Z,27.15
2022-08-07T17:07:10.168Z,27.24
2022-08-07T17:10:07.122Z,26.65
2022-08-07T17:12:53.100Z,26.18
2022-08-07T17:15:44.260Z,25.75
2022-08-07T17:18:26.479Z,25.46
2022-08-07T17:20:54.895Z,25.53
2022-08-07T17:23:43.257Z,25.37
2022-08-07T17:26:24.177Z,25.07
2022-08-07T17:30:12.672Z,25.26
2022-08-07T17:32:31.201Z,24.86
2022-08-07T17:35:51.817Z,24.75
2022-08-07T17:38:33.178Z,24.45
2022-08-07T17:42:00.750Z,24.31
2022-08-07T17:44:34.060Z,24.06
2022-08-07T17:47:17.190Z,24.36
2022-08-07T17:50:01.784Z,24.17
2022-08-07T17:52:41.164Z,23.86
2022-08-07T17:55:13.210Z,23.95
2022-08-07T17:58:07.469Z,23.97
2022-08-07T18:00:49.193Z,23.76
2022-08-07T18:03:25.604Z,23.73
2022-08-07T18:06:01.515Z,23.52
2022-08-07T18:08:34.588Z,23.35
2022-08-07T18:12:17.623Z,22.93
2022-08-07T18:14:18.731Z,23.05
2022-08-07T18:17:13.562Z,23.26
2022-08-07T18:21:02.299Z,23.12
2022-08-07T18:22:38.740Z,23.62
2022-08-07T18:25:23.977Z,23.44
2022-08-07T18:28:36.109Z,23.18
2022-08-07T18:31:18.428Z,23.35
2022-08-07T18:33:55.057Z,23.16
2022-08-07T18:36:53.874Z,22.85
2022-08-07T18:40:42.973Z,22.69
2022-08-07T18:43:36.899Z,22.56
2022-08-07T18:46:24.703Z,22.41
2022-08-07T18:50:30.132Z,22.39
2022-08-07T18:52:54.325Z,22.33
2022-08-07T18:55:57.265Z,22.04
2022-08-07T18:58:42.400Z,21.91
2022-08-07T19:02:18.263Z,21.88
2022-08-07T19:04:37.935Z,21.85
2022-08-07T19:07:34.190Z,21.58
2022-08-07T19:10:12.103Z,21.60
2022-08-07T19:12:57.763Z,21.54
2022-08-07T19:16:04.274Z,21.45
2022-08-07T19:18:34.595Z,21.35
2022-08-07T19:21:51.188Z,21.12
2022-08-07T19:24:36.207Z,21.02
2022-08-07T19:29:02.782Z,21.03
2022-08-07T19:31:05.262Z,20.96
2022-08-07T19:32:46.146Z,20.87
2022-08-07T19:35:19.666Z,20.69
2022-08-07T19:37:57.751Z,20.60
2022-08-07T19:40:31.889Z,20.49
2022-08-07T19:43:01.096Z,20.54
2022-08-07T19:46:05.540Z,20.42
2022-08-07T19:48:24.320Z,20.07
2022-08-07T19:50:54.564Z,20.16
2022-08-07T19:54:34.120Z,20.31
2022-08-07T19:57:52.348Z,20.22
2022-08-07T19:58:58.258Z,20.19
2022-08-07T20:01:52.943Z,20.16
2022-08-07T20:04:31.914Z,20.12
2022-08-07T20:07:09.216Z,19.92
2022-08-07T20:10:35.178Z,19.81
2022-08-07T20:12:34.908Z,19.79
2022-08-07T20:15:04.083Z,19.87
2022-08-07T20:17:38.702Z,19.78
2022-08-07T20:20:07.351Z,19.70
2022-08-07T20:22:36.007Z,19.63
2022-08-07T20:25:07.092Z,19.73
2022-08-07T20:27:57.955Z,19.62
2022-08-07T20:30:31.117Z,19.54
2022-08-07T20:33:00.466Z,19.60
2022-08-07T20:35:51.804Z,19.51
2022-08-07T20:38:21.529Z,19.42
2022-08-07T20:40:56.469Z,19.31
2022-08-07T20:43:27.931Z,19.24
2022-08-07T20:46:29.107Z,19.24
2022-08-07T20:49:53.958Z,19.16
2022-08-07T20:51:40.286Z,19.21
2022-08-07T20:54:09.481Z,19.11
2022-08-07T20:56:46.100Z,19.02
2022-08-07T21:00:04.499Z,18.82
2022-08-07T21:02:27.602Z,18.80
2022-08-07T21:04:54.940Z,18.94
2022-08-07T21:07:25.041Z,18.82
2022-08-07T21:09:59.371Z,18.71
2022-08-07T21:12:31.057Z,18.58
2022-08-07T21:14:59.705Z,18.63
2022-08-07T21:18:02.747Z,18.50
2022-08-07T21:20:30.362Z,18.41
2022-08-07T21:23:08.042Z,18.57
2022-08-07T21:26:09.448Z,18.41
2022-08-07T21:28:52.200Z,18.40
2022-08-07T21:32:10.857Z,18.14
2022-08-07T21:34:48.702Z,18.25
2022-08-07T21:37:24.340Z,17.93
2022-08-07T21:39:57.994Z,18.12
2022-08-07T21:42:49.197Z,18.19
2022-08-07T21:46:04.750Z,18.05
2022-08-07T21:48:27.883Z,17.68
2022-08-07T21:51:02.677Z,17.72
2022-08-07T21:53:46.441Z,17.61
2022-08-07T21:56:42.420Z,17.70
2022-08-07T22:00:05.063Z,17.79
2022-08-07T22:02:44.021Z,17.73
2022-08-07T22:05:43.979Z,17.81
2022-08-07T22:08:04.275Z,17.79
2022-08-07T22:10:33.819Z,17.73
2022-08-07T22:13:09.136Z,17.61
2022-08-07T22:16:41.169Z,17.62
2022-08-07T22:18:37.146Z,17.59
2022-08-07T22:22:01.822Z,17.42
2022-08-07T22:24:19.792Z,17.59
2022-08-07T22:26:50.465Z,17.58
2022-08-07T22:29:49.533Z,17.70
2022-08-07T22:32:42.337Z,17.38
2022-08-07T22:35:11.031Z,17.49
2022-08-07T22:38:03.718Z,17.37
2022-08-07T22:40:51.626Z,17.33
2022-08-07T22:43:25.073Z,17.25
2022-08-07T22:47:03.780Z,17.23
2022-08-07T22:49:59.639Z,17.29
2022-08-07T22:52:37.665Z,17.28
2022-08-07T22:55:17.789Z,17.31
2022-08-07T22:58:04.940Z,17.20
2022-08-07T23:00:38.677Z,17.26
2022-08-07T23:03:57.359Z,17.27
2022-08-07T23:06:51.538Z,17.22
2022-08-07T23:10:37.967Z,17.12
2022-08-07T23:13:05.063Z,17.19
2022-08-07T23:16:06.757Z,17.12
2022-08-07T23:19:38.840Z,17.18
2022-08-07T23:22:28.610Z,16.94
2022-08-07T23:25:21.113Z,16.71
2022-08-07T23:28:21.130Z,16.72
2022-08-07T23:31:06.462Z,16.74
2022-08-07T23:34:38.259Z,16.72
2022-08-07T23:37:37.252Z,16.39
2022-08-07T23:40:49.380Z,16.42
2022-08-07T23:43:23.994Z,16.68
2022-08-07T23:46:23.512Z,16.52
2022-08-07T23:49:05.167Z,16.43
2022-08-07T23:53:01.513Z,16.50
2022-08-07T23:54:52.073Z,16.47
2022-08-07T23:57:34.821Z,16.60
